Time;durP1;ratioP1;P1;durP2;ratioP2;P2;SDS_P1;SDS_P2;PMS_P1;PMS_P2;Temp;Humidity;BMP_temperature;BMP_pressure;BME280_temperature;BME280_humidity;BME280_pressure;Samples;Min_cycle;Max_cycle;Signal;HPM_P1;HPM_P2
2021/05/07 00:01:28;;;;;;;35.70;19.33;;;2.50;99.90;;;;;;4145711;28;20029;-76
2021/05/07 00:03:29;;;;;;;38.33;19.00;;;2.40;99.90;;;;;;4147352;28;20367;-74
2021/05/07 00:05:30;;;;;;;35.83;19.15;;;2.30;99.90;;;;;;4161761;28;20163;-74
2021/05/07 00:07:31;;;;;;;43.13;21.10;;;2.30;99.90;;;;;;4162081;28;20096;-74
2021/05/07 00:09:32;;;;;;;41.10;20.38;;;2.30;99.90;;;;;;4145670;28;20033;-74
2021/05/07 00:11:34;;;;;;;34.28;18.02;;;2.30;99.90;;;;;;4145445;28;20117;-74
2021/05/07 00:13:35;;;;;;;37.35;20.65;;;2.30;99.90;;;;;;4146798;28;20033;-74
2021/05/07 00:15:36;;;;;;;48.13;21.30;;;2.30;99.90;;;;;;4145151;28;20033;-75
2021/05/07 00:17:37;;;;;;;41.92;21.27;;;2.30;99.90;;;;;;4156993;28;20045;-74
2021/05/07 00:19:38;;;;;;;46.75;21.70;;;2.30;99.90;;;;;;4156807;28;20033;-74
2021/05/07 00:21:39;;;;;;;39.38;21.10;;;2.20;99.90;;;;;;4145694;28;20520;-74
2021/05/07 00:23:40;;;;;;;41.90;21.70;;;2.20;99.90;;;;;;4161636;28;20026;-74
2021/05/07 00:25:41;;;;;;;42.50;22.20;;;2.10;99.90;;;;;;4145205;28;20038;-75
2021/05/07 00:27:41;;;;;;;41.40;22.45;;;2.10;99.90;;;;;;4145252;28;20088;-74
2021/05/07 00:29:43;;;;;;;41.10;21.85;;;2.10;99.90;;;;;;4145341;28;20468;-74
2021/05/07 00:31:44;;;;;;;47.72;22.50;;;2.10;99.90;;;;;;4145570;28;20028;-75
2021/05/07 00:33:45;;;;;;;38.28;20.88;;;2.10;99.90;;;;;;4145325;28;20084;-74
2021/05/07 00:35:46;;;;;;;42.33;22.13;;;2.10;99.90;;;;;;4145483;28;20041;-74
2021/05/07 00:37:47;;;;;;;45.63;22.65;;;2.10;99.90;;;;;;4129041;28;20054;-74
2021/05/07 00:39:47;;;;;;;44.53;23.50;;;2.10;99.90;;;;;;4157578;28;20100;-74
2021/05/07 00:41:48;;;;;;;48.42;23.70;;;2.20;99.90;;;;;;4144681;28;20469;-74
2021/05/07 00:43:49;;;;;;;49.60;23.02;;;2.20;99.90;;;;;;4159792;28;20068;-74
2021/05/07 00:45:51;;;;;;;42.60;21.50;;;2.20;99.90;;;;;;4144207;28;20049;-74
2021/05/07 00:48:10;;;;;;;44.53;22.10;;;2.20;99.90;;;;;;4146409;28;20033;-74
2021/05/07 00:50:11;;;;;;;46.17;22.58;;;2.30;99.90;;;;;;4144870;28;20038;-73
2021/05/07 00:52:12;;;;;;;47.28;23.73;;;2.30;99.90;;;;;;4145326;28;20354;-74
2021/05/07 00:54:13;;;;;;;44.67;23.70;;;2.30;99.90;;;;;;4145460;28;20092;-74
2021/05/07 00:56:14;;;;;;;46.83;23.80;;;2.20;99.90;;;;;;4144914;28;20113;-74
2021/05/07 00:58:15;;;;;;;44.55;22.30;;;2.20;99.90;;;;;;4161809;28;20076;-74
2021/05/07 01:00:17;;;;;;;47.22;21.88;;;2.10;99.90;;;;;;4145595;28;20092;-74
2021/05/07 01:02:18;;;;;;;37.17;21.48;;;2.10;99.90;;;;;;4145305;28;20110;-74
2021/05/07 01:04:19;;;;;;;43.00;21.00;;;2.00;99.90;;;;;;4146474;28;20042;-74
2021/05/07 01:06:20;;;;;;;43.15;22.73;;;1.90;99.90;;;;;;4144748;28;20058;-74
2021/05/07 01:08:21;;;;;;;37.78;19.75;;;1.80;99.90;;;;;;4146005;28;20038;-73
2021/05/07 01:10:23;;;;;;;37.28;20.08;;;1.80;99.90;;;;;;4129089;28;20034;-74
2021/05/07 01:12:24;;;;;;;44.65;22.88;;;1.80;99.90;;;;;;4146585;28;20040;-74
2021/05/07 01:14:25;;;;;;;46.50;22.88;;;1.90;99.90;;;;;;4145053;28;20030;-74
2021/05/07 01:16:28;;;;;;;44.97;22.73;;;1.90;99.90;;;;;;4146798;28;20060;-74
2021/05/07 01:18:28;;;;;;;44.33;21.95;;;1.90;99.90;;;;;;4146288;28;20421;-74
2021/05/07 01:20:32;;;;;;;45.35;20.88;;;1.80;99.90;;;;;;4145020;28;20034;-74
2021/05/07 01:22:33;;;;;;;38.38;20.23;;;1.80;99.90;;;;;;4146447;28;20037;-73
2021/05/07 01:24:34;;;;;;;39.25;22.10;;;1.80;99.90;;;;;;4145036;28;20026;-73
2021/05/07 01:26:34;;;;;;;41.22;23.02;;;1.80;99.90;;;;;;4161396;28;20041;-74
2021/05/07 01:28:35;;;;;;;41.97;20.63;;;1.80;99.90;;;;;;4144911;28;20096;-74
2021/05/07 01:30:40;;;;;;;38.58;20.30;;;1.80;99.90;;;;;;4147949;28;20520;-74
2021/05/07 01:32:43;;;;;;;42.78;20.88;;;1.80;99.90;;;;;;4148387;28;20061;-74
2021/05/07 01:34:44;;;;;;;41.33;20.88;;;1.80;99.90;;;;;;4131843;28;20034;-74
2021/05/07 01:36:45;;;;;;;44.50;20.58;;;1.90;99.90;;;;;;4147911;28;20042;-74
2021/05/07 01:38:46;;;;;;;36.95;19.42;;;1.90;99.90;;;;;;4146669;28;20041;-74
2021/05/07 01:40:50;;;;;;;43.13;20.35;;;1.90;99.90;;;;;;4147882;28;20065;-74
2021/05/07 01:42:53;;;;;;;38.17;19.25;;;1.90;99.90;;;;;;4138778;28;20041;-73
2021/05/07 01:44:53;;;;;;;33.45;18.70;;;1.90;99.90;;;;;;4128125;28;20038;-75
2021/05/07 01:46:54;;;;;;;44.42;20.35;;;1.90;99.90;;;;;;4147274;28;20597;-74
2021/05/07 01:48:55;;;;;;;41.67;20.02;;;1.80;99.90;;;;;;4131607;28;20042;-74
2021/05/07 01:50:56;;;;;;;37.53;19.73;;;1.80;99.90;;;;;;4149570;28;20584;-74
2021/05/07 01:52:57;;;;;;;39.08;18.92;;;1.70;99.90;;;;;;4147913;28;20060;-73
2021/05/07 01:54:58;;;;;;;39.05;19.27;;;1.60;99.90;;;;;;4148514;28;20125;-74
2021/05/07 01:56:59;;;;;;;38.78;19.50;;;1.60;99.90;;;;;;4163052;28;20029;-75
2021/05/07 01:59:00;;;;;;;38.38;20.85;;;1.60;99.90;;;;;;4146825;28;20033;-74
2021/05/07 02:01:01;;;;;;;37.88;19.65;;;1.60;99.90;;;;;;4148087;28;20053;-75
2021/05/07 02:03:04;;;;;;;37.65;19.33;;;1.70;99.90;;;;;;4147638;28;20033;-76
2021/05/07 02:05:07;;;;;;;35.58;17.90;;;1.80;99.90;;;;;;4116767;28;20117;-74
2021/05/07 02:07:08;;;;;;;39.38;19.35;;;1.80;99.90;;;;;;4165536;28;20045;-74
2021/05/07 02:09:09;;;;;;;41.78;19.08;;;1.90;99.90;;;;;;4163172;28;20386;-74
2021/05/07 02:11:09;;;;;;;41.72;19.35;;;2.00;99.90;;;;;;4147926;28;20456;-74
2021/05/07 02:13:12;;;;;;;38.20;20.52;;;2.10;99.90;;;;;;4146270;28;20054;-74
2021/05/07 02:15:15;;;;;;;41.40;21.58;;;2.20;99.90;;;;;;4162905;28;20098;-74
2021/05/07 02:17:17;;;;;;;;;;;2.30;99.90;;;;;;4146924;28;20100;-74
2021/05/07 02:19:18;;;;;;;40.08;19.67;;;2.40;99.90;;;;;;4163083;28;19917;-73
2021/05/07 02:21:18;;;;;;;35.75;19.85;;;2.50;99.90;;;;;;4147200;28;20523;-73
2021/05/07 02:23:20;;;;;;;40.95;21.45;;;2.60;99.90;;;;;;4146451;28;20118;-74
2021/05/07 02:25:24;;;;;;;37.95;20.17;;;2.60;99.90;;;;;;4146520;28;21879;-74
2021/05/07 02:27:25;;;;;;;42.97;20.63;;;2.70;99.90;;;;;;4147526;28;20159;-74
2021/05/07 02:29:26;;;;;;;40.17;20.58;;;2.80;99.90;;;;;;4146714;28;20133;-74
2021/05/07 02:31:27;;;;;;;42.78;22.73;;;2.80;99.90;;;;;;4163142;28;20412;-73
2021/05/07 02:33:27;;;;;;;42.05;23.20;;;2.90;99.90;;;;;;4146465;28;20034;-76
2021/05/07 02:35:28;;;;;;;43.80;23.05;;;3.00;99.90;;;;;;4173695;28;20029;-74
2021/05/07 02:37:29;;;;;;;41.20;22.70;;;3.10;99.90;;;;;;4145464;28;20106;-74
2021/05/07 02:39:30;;;;;;;52.00;26.27;;;3.10;99.90;;;;;;4163418;28;20045;-74
2021/05/07 02:41:31;;;;;;;39.92;22.38;;;3.20;99.90;;;;;;4161775;28;20029;-74
2021/05/07 02:43:32;;;;;;;42.70;21.92;;;3.20;99.90;;;;;;4133967;28;20034;-74
2021/05/07 02:45:33;;;;;;;38.97;22.40;;;3.30;99.90;;;;;;4161695;28;20036;-74
2021/05/07 02:47:36;;;;;;;43.28;23.02;;;3.30;99.90;;;;;;4161845;28;20049;-74
2021/05/07 02:49:37;;;;;;;39.53;23.05;;;3.30;99.90;;;;;;4162299;28;20116;-75
2021/05/07 02:51:38;;;;;;;46.03;24.05;;;3.30;99.90;;;;;;4147159;28;20034;-75
2021/05/07 02:53:39;;;;;;;45.85;22.67;;;3.30;99.90;;;;;;4162141;28;20037;-74
2021/05/07 02:55:39;;;;;;;45.67;22.50;;;3.30;99.90;;;;;;4145981;28;20563;-75
2021/05/07 02:57:40;;;;;;;42.83;22.45;;;3.30;99.90;;;;;;4147482;28;20056;-75
2021/05/07 02:59:41;;;;;;;48.97;25.35;;;3.30;99.90;;;;;;4163122;28;20108;-74
2021/05/07 03:01:42;;;;;;;39.90;23.23;;;3.30;99.90;;;;;;4146859;28;20092;-75
2021/05/07 03:03:43;;;;;;;54.47;24.30;;;3.40;99.90;;;;;;4147057;28;20091;-75
2021/05/07 03:05:44;;;;;;;44.17;24.70;;;3.40;99.90;;;;;;4157810;28;20041;-75
2021/05/07 03:07:45;;;;;;;48.80;25.02;;;3.40;99.90;;;;;;4163437;28;20041;-75
2021/05/07 03:09:46;;;;;;;43.90;25.33;;;3.50;99.90;;;;;;4162676;28;20033;-74
2021/05/07 03:11:47;;;;;;;45.65;24.58;;;3.50;99.90;;;;;;4146783;28;20077;-74
2021/05/07 03:13:48;;;;;;;46.85;25.38;;;3.50;99.90;;;;;;4162943;28;20140;-74
2021/05/07 03:15:49;;;;;;;52.15;26.33;;;3.50;99.90;;;;;;4146315;28;20121;-74
2021/05/07 03:17:53;;;;;;;51.78;26.30;;;3.60;99.90;;;;;;4146604;28;20204;-74
2021/05/07 03:19:54;;;;;;;46.20;25.85;;;3.60;99.90;;;;;;4147856;28;20125;-74
2021/05/07 03:21:54;;;;;;;49.30;26.33;;;3.60;99.90;;;;;;4146271;28;20034;-74
2021/05/07 03:23:55;;;;;;;54.17;27.40;;;3.60;99.90;;;;;;4146500;28;20057;-74
2021/05/07 03:25:56;;;;;;;50.63;27.90;;;3.60;99.90;;;;;;4162781;28;20025;-74
2021/05/07 03:27:57;;;;;;;62.22;30.10;;;3.70;99.90;;;;;;4135367;28;20038;-74
2021/05/07 03:29:57;;;;;;;55.60;29.98;;;3.70;99.90;;;;;;4143650;28;20440;-74
2021/05/07 03:31:58;;;;;;;57.58;29.13;;;3.80;99.90;;;;;;4146361;28;20034;-74
2021/05/07 03:33:59;;;;;;;53.03;29.13;;;3.90;99.90;;;;;;4162868;28;20029;-74
2021/05/07 03:36:00;;;;;;;41.80;24.27;;;3.90;99.90;;;;;;4155310;28;20115;-74
2021/05/07 03:38:02;;;;;;;47.13;24.80;;;4.00;99.90;;;;;;4146078;28;20057;-76
2021/05/07 03:40:03;;;;;;;41.80;22.02;;;3.90;99.90;;;;;;4126345;28;20118;-75
2021/05/07 03:42:04;;;;;;;33.00;17.85;;;3.80;99.90;;;;;;4145384;28;20028;-75
2021/05/07 03:44:06;;;;;;;33.35;17.85;;;3.80;99.90;;;;;;4147119;28;20067;-75
2021/05/07 03:46:06;;;;;;;23.73;14.30;;;3.70;99.90;;;;;;4162580;28;20033;-74
2021/05/07 03:48:33;;;;;;;23.50;11.95;;;3.70;99.90;;;;;;4146367;28;20030;-74
2021/05/07 03:50:36;;;;;;;23.13;13.40;;;3.60;99.90;;;;;;4143860;28;20041;-75
2021/05/07 03:52:38;;;;;;;23.17;14.80;;;3.40;99.90;;;;;;4153561;28;20049;-75
2021/05/07 03:54:38;;;;;;;24.00;15.27;;;3.30;99.90;;;;;;4151424;28;20083;-75
2021/05/07 03:56:39;;;;;;;25.65;14.20;;;3.20;99.90;;;;;;4145321;28;20029;-74
2021/05/07 03:58:40;;;;;;;17.45;10.52;;;3.10;99.90;;;;;;4129696;28;20117;-76
2021/05/07 04:00:42;;;;;;;17.52;11.27;;;3.10;99.90;;;;;;4146067;28;20053;-76
2021/05/07 04:02:44;;;;;;;17.13;11.27;;;3.10;99.90;;;;;;4133529;28;20477;-76
2021/05/07 04:04:46;;;;;;;19.40;10.95;;;3.00;99.90;;;;;;4142759;28;20385;-76
2021/05/07 04:06:46;;;;;;;17.50;10.75;;;3.00;99.90;;;;;;4161353;28;20144;-77
2021/05/07 04:09:05;;;;;;;26.38;11.98;;;2.90;99.90;;;;;;4128520;28;20069;-76
2021/05/07 04:11:12;;;;;;;18.63;11.35;;;2.90;99.90;;;;;;4145396;28;20038;-75
2021/05/07 04:15:33;;;;;;;20.08;11.90;;;2.90;99.90;;;;;;4158194;28;20044;-75
2021/05/07 04:17:34;;;;;;;21.73;12.55;;;2.80;99.90;;;;;;4159879;28;20037;-76
2021/05/07 04:19:34;;;;;;;20.38;11.73;;;2.80;99.90;;;;;;4143897;28;20112;-76
2021/05/07 04:21:36;;;;;;;20.60;9.88;;;2.80;99.90;;;;;;4133251;28;20420;-77
2021/05/07 04:23:37;;;;;;;21.15;11.85;;;2.80;99.90;;;;;;4146209;28;20471;-76
2021/05/07 04:25:38;;;;;;;19.08;10.00;;;2.70;99.90;;;;;;4161115;28;20064;-75
2021/05/07 04:27:39;;;;;;;16.63;10.32;;;2.70;99.90;;;;;;4144563;28;20042;-75
2021/05/07 04:29:41;;;;;;;23.08;11.23;;;2.80;99.90;;;;;;4145571;28;20049;-75
2021/05/07 04:31:41;;;;;;;20.35;10.70;;;2.80;99.90;;;;;;4134258;28;20072;-75
2021/05/07 04:33:42;;;;;;;21.58;11.70;;;2.70;99.90;;;;;;4155671;28;20041;-75
2021/05/07 04:35:43;;;;;;;21.80;11.68;;;2.70;99.90;;;;;;4153518;28;20591;-75
2021/05/07 04:37:44;;;;;;;19.38;11.38;;;2.70;99.90;;;;;;4145166;28;20109;-74
2021/05/07 04:39:45;;;;;;;23.10;11.73;;;2.70;99.90;;;;;;4145428;28;20045;-74
2021/05/07 04:41:46;;;;;;;22.85;12.75;;;2.70;99.90;;;;;;4144945;28;20143;-74
2021/05/07 04:43:46;;;;;;;19.02;12.35;;;2.70;99.90;;;;;;4145226;28;20042;-74
2021/05/07 04:45:47;;;;;;;22.15;12.55;;;2.70;99.90;;;;;;4145428;28;20034;-74
2021/05/07 04:47:48;;;;;;;22.70;12.75;;;2.70;99.90;;;;;;4129216;28;20077;-74
2021/05/07 04:49:49;;;;;;;26.95;12.30;;;2.70;99.90;;;;;;4145526;28;20033;-74
2021/05/07 04:51:49;;;;;;;23.83;13.20;;;2.70;99.90;;;;;;4145243;28;20096;-74
2021/05/07 04:53:51;;;;;;;22.88;13.00;;;2.80;99.90;;;;;;4145373;28;20116;-74
2021/05/07 04:55:52;;;;;;;23.10;12.50;;;2.70;99.90;;;;;;4161279;28;20037;-76
2021/05/07 04:57:52;;;;;;;21.00;12.48;;;2.80;99.90;;;;;;4146466;28;20102;-74
2021/05/07 04:59:53;;;;;;;22.98;10.93;;;2.80;99.90;;;;;;4146144;28;20030;-74
2021/05/07 05:01:54;;;;;;;18.27;9.48;;;2.90;99.90;;;;;;4161237;28;20120;-75
2021/05/07 05:03:56;;;;;;;17.83;9.88;;;3.00;99.90;;;;;;4146281;28;20034;-74
2021/05/07 05:05:57;;;;;;;17.92;10.55;;;3.10;99.90;;;;;;4161158;28;20044;-75
2021/05/07 05:07:58;;;;;;;17.98;9.20;;;3.10;99.90;;;;;;4161741;28;20033;-75
2021/05/07 05:09:59;;;;;;;14.32;9.05;;;3.20;99.90;;;;;;4129085;28;20031;-74
2021/05/07 05:12:00;;;;;;;15.10;8.20;;;3.40;99.90;;;;;;4161464;28;20044;-75
2021/05/07 05:14:02;;;;;;;18.35;8.98;;;3.40;99.90;;;;;;4145205;28;20041;-75
2021/05/07 05:16:03;;;;;;;15.73;9.07;;;3.40;99.90;;;;;;4160954;28;20094;-74
2021/05/07 05:18:04;;;;;;;10.75;8.65;;;3.40;99.90;;;;;;4144999;28;20064;-75
2021/05/07 05:20:09;;;;;;;14.90;8.57;;;3.40;99.90;;;;;;4161617;28;20033;-75
2021/05/07 05:22:10;;;;;;;15.68;9.93;;;3.40;99.90;;;;;;4161369;28;20100;-76
2021/05/07 05:24:11;;;;;;;15.45;9.40;;;3.40;99.90;;;;;;4145007;28;20114;-75
2021/05/07 05:26:12;;;;;;;14.98;9.55;;;3.40;99.90;;;;;;4145864;28;20100;-76
2021/05/07 05:28:13;;;;;;;16.90;9.55;;;3.40;99.90;;;;;;4157766;28;20029;-76
2021/05/07 05:30:14;;;;;;;16.50;9.38;;;3.40;99.90;;;;;;4160957;28;20041;-75
2021/05/07 05:32:15;;;;;;;13.43;10.13;;;3.40;99.90;;;;;;4146158;28;20470;-76
2021/05/07 05:34:16;;;;;;;13.05;9.32;;;3.40;99.90;;;;;;4144627;28;20034;-75
2021/05/07 05:36:17;;;;;;;18.55;10.07;;;3.40;99.90;;;;;;4144400;28;20026;-76
2021/05/07 05:38:18;;;;;;;13.98;9.45;;;3.40;99.90;;;;;;4144524;28;20041;-75
2021/05/07 05:40:19;;;;;;;15.50;10.27;;;3.40;99.90;;;;;;4152771;28;20038;-75
2021/05/07 05:42:19;;;;;;;13.77;9.38;;;3.40;99.90;;;;;;4143723;28;20127;-76
2021/05/07 05:44:20;;;;;;;15.52;9.35;;;3.40;99.90;;;;;;4148150;28;20058;-75
2021/05/07 05:46:21;;;;;;;12.45;8.55;;;3.30;99.90;;;;;;4134801;28;21073;-75
2021/05/07 05:48:23;;;;;;;13.15;8.38;;;3.30;99.90;;;;;;4135176;28;20492;-75
2021/05/07 05:50:23;;;;;;;15.23;8.50;;;3.30;99.90;;;;;;4131836;28;20038;-74
2021/05/07 05:52:24;;;;;;;14.82;9.00;;;3.20;99.90;;;;;;4144084;28;20437;-75
2021/05/07 05:54:25;;;;;;;9.70;7.50;;;3.30;99.90;;;;;;4143060;28;20192;-74
2021/05/07 05:56:26;;;;;;;10.77;8.10;;;3.30;99.90;;;;;;4128182;28;20478;-75
2021/05/07 05:58:30;;;;;;;12.82;8.23;;;3.30;99.90;;;;;;4141019;28;20045;-75
2021/05/07 06:00:33;;;;;;;11.13;8.50;;;3.30;99.90;;;;;;4155961;28;20096;-75
2021/05/07 06:02:34;;;;;;;13.68;10.32;;;3.50;99.90;;;;;;4144166;28;20049;-76
2021/05/07 06:04:35;;;;;;;12.48;8.45;;;3.60;99.90;;;;;;4142969;28;20065;-75
2021/05/07 06:06:35;;;;;;;14.77;10.10;;;3.80;99.90;;;;;;4152811;28;20053;-75
2021/05/07 06:08:37;;;;;;;11.00;8.10;;;3.90;99.90;;;;;;4144554;28;20044;-74
2021/05/07 06:10:38;;;;;;;14.23;9.43;;;4.00;99.90;;;;;;4143207;28;20048;-74
2021/05/07 06:12:40;;;;;;;11.65;8.10;;;4.10;99.90;;;;;;4143156;28;20046;-74
2021/05/07 06:14:41;;;;;;;8.80;6.20;;;4.10;99.90;;;;;;4157004;28;20459;-75
2021/05/07 06:16:44;;;;;;;8.65;5.65;;;4.20;99.90;;;;;;4146181;28;20133;-74
2021/05/07 06:18:45;;;;;;;9.38;6.70;;;4.20;99.90;;;;;;4152278;28;20037;-74
2021/05/07 06:20:46;;;;;;;8.45;6.28;;;4.10;99.90;;;;;;4161767;28;20080;-74
2021/05/07 06:22:48;;;;;;;8.88;5.72;;;4.00;99.90;;;;;;4146268;28;20402;-74
2021/05/07 06:24:49;;;;;;;6.80;6.10;;;4.00;99.90;;;;;;4152892;28;20046;-73
2021/05/07 06:26:50;;;;;;;8.95;6.30;;;4.00;99.90;;;;;;4147089;28;20037;-73
2021/05/07 06:28:50;;;;;;;9.55;7.18;;;4.10;99.90;;;;;;4147555;28;20025;-74
2021/05/07 06:30:56;;;;;;;9.40;6.00;;;4.10;99.90;;;;;;4147599;28;20033;-74
2021/05/07 06:32:56;;;;;;;14.02;6.50;;;4.00;99.90;;;;;;4163257;28;20033;-73
2021/05/07 06:34:57;;;;;;;8.70;6.57;;;4.00;99.90;;;;;;4146979;28;20113;-73
2021/05/07 06:36:58;;;;;;;11.57;8.45;;;4.10;99.90;;;;;;4146958;28;20061;-74
2021/05/07 06:38:59;;;;;;;9.52;7.55;;;4.10;99.90;;;;;;4147354;28;20410;-74
2021/05/07 06:41:00;;;;;;;14.50;7.75;;;4.10;99.90;;;;;;4146825;28;20038;-75
2021/05/07 06:43:01;;;;;;;8.63;6.93;;;4.20;99.90;;;;;;4148478;28;20087;-74
2021/05/07 06:45:09;;;;;;;10.18;7.13;;;4.20;99.90;;;;;;4130503;28;20213;-76
2021/05/07 06:47:10;;;;;;;9.75;6.70;;;4.30;99.90;;;;;;4146435;28;20041;-73
2021/05/07 06:49:11;;;;;;;9.10;7.00;;;4.40;99.90;;;;;;4147113;28;20128;-73
2021/05/07 06:51:12;;;;;;;9.18;5.88;;;4.40;99.90;;;;;;4147106;28;20033;-73
2021/05/07 06:53:13;;;;;;;7.40;5.20;;;4.50;99.90;;;;;;4148324;28;20026;-74
2021/05/07 06:55:14;;;;;;;5.15;4.50;;;4.70;99.90;;;;;;4163586;28;20164;-74
2021/05/07 06:57:15;;;;;;;7.63;5.03;;;4.70;99.90;;;;;;4146718;28;20624;-75
2021/05/07 06:59:18;;;;;;;6.53;5.00;;;4.80;99.90;;;;;;4148031;28;20109;-74
2021/05/07 07:01:19;;;;;;;6.60;5.65;;;4.80;99.90;;;;;;4163167;28;20033;-76
2021/05/07 07:03:19;;;;;;;9.70;6.97;;;4.80;99.90;;;;;;4159575;28;20121;-73
2021/05/07 07:05:20;;;;;;;4.57;3.45;;;4.90;99.90;;;;;;4144226;28;20092;-73
2021/05/07 07:07:23;;;;;;;6.30;4.60;;;5.00;99.90;;;;;;4162920;28;20041;-73
2021/05/07 07:09:24;;;;;;;6.65;5.22;;;5.10;99.90;;;;;;4146224;28;20042;-73
2021/05/07 07:11:25;;;;;;;7.85;5.63;;;5.10;99.90;;;;;;4128858;28;20046;-76
2021/05/07 07:13:27;;;;;;;7.43;5.30;;;5.10;99.90;;;;;;4140750;28;20041;-72
2021/05/07 07:15:28;;;;;;;5.93;4.75;;;5.20;99.90;;;;;;4162299;28;20040;-73
2021/05/07 07:17:30;;;;;;;5.20;4.63;;;5.30;99.90;;;;;;4146444;28;20058;-73
2021/05/07 07:19:31;;;;;;;6.65;5.38;;;5.40;99.90;;;;;;4140144;28;20058;-76
2021/05/07 07:21:32;;;;;;;8.07;5.70;;;5.40;99.90;;;;;;4144807;28;20052;-73
2021/05/07 07:23:33;;;;;;;6.75;5.45;;;5.50;99.90;;;;;;4162447;28;20037;-74
2021/05/07 07:25:34;;;;;;;7.18;6.07;;;5.60;99.90;;;;;;4145844;28;20034;-73
2021/05/07 07:27:35;;;;;;;7.75;5.50;;;5.70;99.90;;;;;;4145626;28;20125;-74
2021/05/07 07:29:37;;;;;;;7.13;6.22;;;5.70;99.90;;;;;;4143412;28;20061;-75
2021/05/07 07:31:37;;;;;;;7.40;5.53;;;5.80;99.90;;;;;;4143554;28;20057;-73
2021/05/07 07:33:38;;;;;;;7.13;5.68;;;6.00;99.90;;;;;;4162407;28;20033;-73
2021/05/07 07:35:40;;;;;;;6.85;6.15;;;6.00;99.90;;;;;;4129299;28;20158;-75
2021/05/07 07:37:40;;;;;;;7.47;6.15;;;6.20;99.90;;;;;;4145971;28;20037;-75
2021/05/07 07:39:42;;;;;;;7.55;5.63;;;6.40;99.90;;;;;;4147778;28;20038;-75
2021/05/07 07:41:43;;;;;;;9.90;5.93;;;6.60;99.90;;;;;;4146104;28;20032;-75
2021/05/07 07:43:44;;;;;;;7.55;6.07;;;6.60;99.90;;;;;;4135526;28;20056;-74
2021/05/07 07:45:45;;;;;;;8.85;5.85;;;6.70;99.90;;;;;;4162634;28;20050;-74
2021/05/07 07:47:45;;;;;;;7.72;5.93;;;6.90;99.90;;;;;;4129976;28;20088;-74
2021/05/07 07:49:46;;;;;;;8.75;5.90;;;7.20;99.90;;;;;;4162229;28;20041;-74
2021/05/07 07:51:47;;;;;;;7.07;5.18;;;7.40;99.90;;;;;;4146105;28;20076;-74
2021/05/07 07:53:48;;;;;;;8.07;5.20;;;7.60;99.90;;;;;;4144518;28;20061;-73
2021/05/07 07:55:52;;;;;;;6.28;4.72;;;7.70;99.90;;;;;;4134533;28;20112;-74
2021/05/07 07:57:53;;;;;;;7.15;5.68;;;7.70;99.90;;;;;;4146342;28;20040;-75
2021/05/07 07:59:54;;;;;;;11.93;5.95;;;7.80;99.90;;;;;;4147197;28;20034;-74
2021/05/07 08:01:55;;;;;;;6.82;5.63;;;7.90;99.90;;;;;;4159264;28;20048;-74
2021/05/07 08:03:56;;;;;;;7.95;5.38;;;8.20;99.90;;;;;;4143949;28;20124;-74
2021/05/07 08:05:57;;;;;;;6.25;5.65;;;8.30;99.90;;;;;;4157432;28;20037;-74
2021/05/07 08:07:59;;;;;;;6.07;4.28;;;8.50;99.90;;;;;;4141001;28;20064;-74
2021/05/07 08:09:59;;;;;;;5.47;4.97;;;8.70;99.90;;;;;;4143918;28;20041;-74
2021/05/07 08:12:00;;;;;;;5.93;5.32;;;8.70;99.90;;;;;;4160628;28;20067;-74
2021/05/07 08:14:01;;;;;;;6.07;4.35;;;8.80;99.90;;;;;;4142438;28;20811;-74
2021/05/07 08:16:02;;;;;;;7.07;5.90;;;8.90;99.90;;;;;;4141595;28;20080;-76
2021/05/07 08:18:03;;;;;;;6.43;5.38;;;8.80;99.90;;;;;;4137360;28;20041;-74
2021/05/07 08:20:06;;;;;;;5.53;4.95;;;9.00;99.90;;;;;;4158352;28;20120;-74
2021/05/07 08:22:06;;;;;;;6.10;5.05;;;9.00;99.90;;;;;;4146586;28;20034;-74
2021/05/07 08:24:09;;;;;;;6.45;4.82;;;8.90;99.90;;;;;;4137728;28;20033;-73
2021/05/07 08:26:09;;;;;;;8.23;5.20;;;9.10;99.90;;;;;;4145285;28;20034;-75
2021/05/07 08:28:10;;;;;;;6.47;5.13;;;9.10;99.90;;;;;;4143091;28;20030;-74
2021/05/07 08:30:13;;;;;;;6.07;4.57;;;9.00;99.90;;;;;;4151799;28;20104;-74
2021/05/07 08:32:14;;;;;;;8.90;4.60;;;9.10;99.90;;;;;;4141829;28;20121;-74
2021/05/07 08:34:16;;;;;;;6.05;4.70;;;9.10;99.90;;;;;;4122272;28;20498;-73
2021/05/07 08:36:17;;;;;;;6.47;4.57;;;9.30;99.90;;;;;;4144853;28;20531;-73
2021/05/07 08:38:17;;;;;;;6.30;4.57;;;9.40;99.90;;;;;;4161011;28;20034;-74
2021/05/07 08:40:18;;;;;;;6.00;4.60;;;9.60;99.90;;;;;;4144616;28;20114;-73
2021/05/07 08:42:20;;;;;;;5.63;4.65;;;9.70;99.90;;;;;;4146397;28;20485;-73
2021/05/07 08:44:21;;;;;;;7.43;5.03;;;9.90;99.90;;;;;;4145039;28;20417;-73
2021/05/07 08:46:23;;;;;;;7.43;5.38;;;10.10;99.90;;;;;;4153050;28;21912;-74
2021/05/07 08:48:25;;;;;;;5.93;3.78;;;10.10;99.90;;;;;;4161322;28;20022;-74
2021/05/07 08:50:26;;;;;;;7.17;4.57;;;10.30;99.90;;;;;;4142556;28;20029;-73
2021/05/07 08:52:28;;;;;;;5.03;4.40;;;10.50;99.90;;;;;;4145159;28;20141;-73
2021/05/07 08:54:28;;;;;;;7.95;4.38;;;10.70;99.90;;;;;;4149941;28;20472;-74
2021/05/07 08:56:29;;;;;;;6.00;4.07;;;10.90;99.90;;;;;;4128927;28;20081;-74
2021/05/07 08:58:31;;;;;;;7.78;4.38;;;10.70;99.90;;;;;;4177921;28;20457;-74
2021/05/07 09:00:32;;;;;;;5.18;4.68;;;10.60;99.90;;;;;;4145425;28;20053;-74
2021/05/07 09:02:33;;;;;;;5.10;4.60;;;10.40;99.90;;;;;;4146336;28;20346;-74
2021/05/07 09:04:34;;;;;;;6.38;4.43;;;10.40;99.90;;;;;;4146662;28;20041;-74
2021/05/07 09:06:56;;;;;;;6.22;5.07;;;10.50;99.90;;;;;;4161332;28;20464;-75
2021/05/07 09:08:57;;;;;;;5.65;4.35;;;10.70;99.90;;;;;;4145888;28;20026;-75
2021/05/07 09:11:01;;;;;;;4.90;4.43;;;11.10;99.90;;;;;;4146482;28;20466;-73
2021/05/07 09:13:04;;;;;;;7.13;4.35;;;11.10;99.90;;;;;;4144839;28;20065;-73
2021/05/07 09:15:09;;;;;;;7.38;4.63;;;11.00;99.90;;;;;;4144087;28;20081;-74
2021/05/07 09:17:10;;;;;;;6.90;4.00;;;11.10;99.90;;;;;;4160941;28;20025;-75
2021/05/07 09:19:22;;;;;;;5.68;3.78;;;11.30;99.90;;;;;;4145626;28;20489;-74
2021/05/07 09:21:23;;;;;;;4.50;3.97;;;11.50;99.90;;;;;;4159324;28;20046;-76
2021/05/07 09:23:24;;;;;;;4.88;4.28;;;11.80;99.90;;;;;;4134657;28;20060;-76
2021/05/07 09:25:25;;;;;;;8.30;4.50;;;12.00;99.90;;;;;;4133042;28;20026;-74
2021/05/07 09:27:25;;;;;;;6.55;4.45;;;12.10;99.90;;;;;;4140462;28;20038;-74
2021/05/07 09:29:30;;;;;;;6.72;4.03;;;12.20;99.90;;;;;;4159560;28;20415;-74
2021/05/07 09:31:31;;;;;;;4.22;3.85;;;12.10;99.90;;;;;;4139807;28;20030;-73
2021/05/07 09:33:32;;;;;;;8.25;4.32;;;12.00;99.90;;;;;;4159358;28;20038;-74
2021/05/07 09:35:33;;;;;;;7.88;4.32;;;11.70;99.90;;;;;;4144423;28;20625;-73
2021/05/07 09:37:35;;;;;;;6.75;4.40;;;11.30;99.90;;;;;;4144217;28;20449;-74
2021/05/07 09:39:37;;;;;;;5.90;5.05;;;11.20;99.90;;;;;;4124356;28;20038;-74
2021/05/07 09:41:49;;;;;;;5.40;4.30;;;11.00;99.90;;;;;;4144522;28;20148;-74
2021/05/07 09:43:50;;;;;;;5.22;4.20;;;10.90;99.90;;;;;;4148192;28;20078;-73
2021/05/07 09:45:52;;;;;;;6.07;4.68;;;10.80;99.90;;;;;;4145916;28;20030;-74
2021/05/07 09:47:54;;;;;;;6.32;4.13;;;10.80;99.90;;;;;;4160816;28;20496;-74
2021/05/07 09:50:06;;;;;;;7.85;3.70;;;11.00;99.90;;;;;;4145540;28;20034;-74
2021/05/07 09:52:08;;;;;;;4.68;3.78;;;11.50;99.90;;;;;;4145014;28;20093;-74
2021/05/07 09:54:09;;;;;;;6.03;3.83;;;11.80;99.90;;;;;;4169522;28;20145;-74
2021/05/07 09:56:16;;;;;;;6.80;3.95;;;12.10;99.90;;;;;;4147735;28;20037;-75
2021/05/07 09:58:17;;;;;;;6.32;3.50;;;12.50;99.90;;;;;;4147189;28;20066;-75
2021/05/07 10:00:18;;;;;;;5.70;3.75;;;12.90;99.90;;;;;;4146746;28;20362;-75
2021/05/07 10:02:19;;;;;;;3.88;3.30;;;13.40;99.90;;;;;;4148952;28;20104;-76
2021/05/07 10:04:20;;;;;;;4.40;3.70;;;13.50;99.90;;;;;;4140559;28;20042;-75
2021/05/07 10:06:20;;;;;;;9.02;3.90;;;13.30;99.90;;;;;;4144102;28;20042;-75
2021/05/07 10:08:21;;;;;;;4.78;3.70;;;13.00;99.90;;;;;;4148363;28;20382;-75
2021/05/07 10:10:31;;;;;;;7.72;3.75;;;13.30;99.90;;;;;;4147037;28;20030;-74
2021/05/07 10:12:38;;;;;;;5.45;3.53;;;13.80;99.90;;;;;;4146826;28;20033;-75
2021/05/07 10:14:45;;;;;;;4.47;3.15;;;14.00;99.90;;;;;;4146637;28;20057;-75
2021/05/07 10:16:46;;;;;;;6.03;3.38;;;13.90;99.90;;;;;;4147568;28;20049;-74
2021/05/07 10:18:48;;;;;;;5.53;3.63;;;14.40;99.90;;;;;;4141985;28;20034;-74
2021/05/07 10:21:02;;;;;;;6.63;3.28;;;14.50;99.90;;;;;;4147188;28;20444;-74
2021/05/07 10:23:23;;;;;;;4.30;3.35;;;14.00;99.90;;;;;;4146068;28;20481;-74
2021/05/07 10:25:26;;;;;;;5.30;3.60;;;12.80;99.90;;;;;;4163061;28;20452;-74
2021/05/07 10:27:27;;;;;;;3.85;3.38;;;12.30;99.90;;;;;;4171144;28;20427;-76
2021/05/07 10:29:28;;;;;;;7.82;3.85;;;12.00;99.90;;;;;;4159250;28;20042;-74
2021/05/07 10:31:29;;;;;;;3.58;3.03;;;11.90;99.90;;;;;;4146689;28;20484;-73
2021/05/07 10:33:29;;;;;;;6.55;3.35;;;11.80;99.90;;;;;;4163403;28;20029;-73
2021/05/07 10:35:39;;;;;;;5.32;3.50;;;12.30;99.90;;;;;;4148065;28;20437;-73